Time;durP1;ratioP1;P1;durP2;ratioP2;P2;SDS_P1;SDS_P2;PMS_P1;PMS_P2;Temp;Humidity;BMP_temperature;BMP_pressure;BME280_temperature;BME280_humidity;BME280_pressure;Samples;Min_cycle;Max_cycle;Signal;HPM_P1;HPM_P2
2021/12/05 00:19:18;;;;;;;43.35;38.97;;;;;;;;;;4896452;29;20236;-79
2021/12/05 00:21:56;;;;;;;43.97;39.20;;;;;;;;;;4896347;29;20210;-79
2021/12/05 00:24:25;;;;;;;40.38;36.30;;;;;;;;;;4896281;29;20349;-78
2021/12/05 00:26:57;;;;;;;45.78;40.97;;;;;;;;;;4896334;29;20753;-79
2021/12/05 00:29:31;;;;;;;42.53;35.97;;;;;;;;;;4950434;28;20201;-79
2021/12/05 00:32:05;;;;;;;49.22;41.53;;;;;;;;;;4991878;28;20221;-79
2021/12/05 00:57:50;;;;;;;36.40;32.92;;;;;;;;;;5011100;28;20199;-79
2021/12/05 01:12:08;;;;;;;36.22;32.65;;;;;;;;;;4932242;29;20740;-79
2021/12/05 01:14:49;;;;;;;34.63;31.02;;;;;;;;;;4932883;29;20237;-79
2021/12/05 01:17:19;;;;;;;33.15;29.88;;;;;;;;;;4933416;29;20266;-79
2021/12/05 01:19:48;;;;;;;32.17;29.20;;;;;;;;;;4944576;28;20817;-79
2021/12/05 01:22:18;;;;;;;34.38;30.73;;;;;;;;;;4971568;28;20229;-79
2021/12/05 01:24:58;;;;;;;32.00;28.70;;;;;;;;;;4971452;28;20202;-79
2021/12/05 01:27:36;;;;;;;32.90;29.65;;;;;;;;;;4971543;28;20216;-79
2021/12/05 01:30:08;;;;;;;30.13;27.33;;;;;;;;;;4971500;28;20265;-78
2021/12/05 01:32:46;;;;;;;31.70;28.52;;;;;;;;;;4971301;28;20296;-78
2021/12/05 01:35:25;;;;;;;31.65;27.05;;;;;;;;;;4971169;28;20231;-79
2021/12/05 01:38:09;;;;;;;29.25;26.35;;;;;;;;;;4971306;28;20328;-78
2021/12/05 01:44:04;;;;;;;29.20;26.25;;;;;;;;;;4932678;29;20735;-79
2021/12/05 01:49:31;;;;;;;30.02;27.70;;;;;;;;;;5028813;28;20207;-78
2021/12/05 01:55:31;;;;;;;26.45;23.90;;;;;;;;;;5049636;28;20345;-79
2021/12/05 01:58:22;;;;;;;25.30;22.98;;;;;;;;;;5049521;28;20190;-78
2021/12/05 02:01:09;;;;;;;25.83;23.83;;;;;;;;;;5049810;28;20214;-79
2021/12/05 02:34:09;;;;;;;24.35;22.58;;;;;;;;;;5042328;28;20268;-79
2021/12/05 02:42:13;;;;;;;23.95;21.92;;;;;;;;;;5051083;28;20213;-78
2021/12/05 02:44:41;;;;;;;23.45;21.85;;;;;;;;;;5051359;28;20206;-79
2021/12/05 02:47:11;;;;;;;25.58;23.17;;;;;;;;;;5051723;28;20192;-78
2021/12/05 02:49:40;;;;;;;23.60;21.60;;;;;;;;;;5051485;28;20241;-79
2021/12/05 02:52:10;;;;;;;23.92;21.58;;;;;;;;;;5050424;28;20218;-78
2021/12/05 02:54:42;;;;;;;22.33;20.65;;;;;;;;;;5031136;28;20223;-78
2021/12/05 02:57:10;;;;;;;24.65;22.05;;;;;;;;;;5031629;28;20270;-79
2021/12/05 02:59:45;;;;;;;25.00;22.45;;;;;;;;;;5031427;28;20239;-78
2021/12/05 03:02:15;;;;;;;24.13;21.73;;;;;;;;;;5031750;28;20252;-78
2021/12/05 03:04:45;;;;;;;24.50;22.73;;;;;;;;;;5031228;28;20243;-78
2021/12/05 03:07:15;;;;;;;22.80;20.85;;;;;;;;;;5054938;28;20237;-79
2021/12/05 03:09:43;;;;;;;22.00;20.38;;;;;;;;;;5071503;28;20197;-79
2021/12/05 03:12:16;;;;;;;22.00;20.20;;;;;;;;;;5071206;28;20667;-79
2021/12/05 03:14:43;;;;;;;22.30;20.70;;;;;;;;;;5071047;28;20233;-79
2021/12/05 03:17:11;;;;;;;22.92;21.23;;;;;;;;;;5071456;28;20186;-79
2021/12/05 03:19:38;;;;;;;23.13;20.83;;;;;;;;;;5071304;28;20228;-78
2021/12/05 03:22:06;;;;;;;22.10;20.60;;;;;;;;;;5071355;28;20194;-79
2021/12/05 03:24:35;;;;;;;23.25;21.10;;;;;;;;;;5071063;28;20201;-79
2021/12/05 03:27:03;;;;;;;23.27;21.45;;;;;;;;;;5071397;28;20256;-79
2021/12/05 03:29:30;;;;;;;22.38;20.33;;;;;;;;;;5071332;28;20197;-79
2021/12/05 03:31:57;;;;;;;22.53;20.70;;;;;;;;;;5073860;28;20201;-78
2021/12/05 03:34:25;;;;;;;23.25;20.98;;;;;;;;;;5074300;28;20483;-79
2021/12/05 03:36:54;;;;;;;26.02;23.80;;;;;;;;;;5074397;28;20202;-79
2021/12/05 03:39:22;;;;;;;24.50;22.60;;;;;;;;;;5074712;28;20198;-79
2021/12/05 03:41:52;;;;;;;23.77;21.88;;;;;;;;;;5074536;28;20193;-79
2021/12/05 03:44:20;;;;;;;22.92;21.15;;;;;;;;;;5074113;28;20644;-79
2021/12/05 03:46:48;;;;;;;24.00;21.75;;;;;;;;;;5074171;28;20194;-79
2021/12/05 03:49:16;;;;;;;22.70;20.67;;;;;;;;;;5074109;28;20190;-79
2021/12/05 03:51:46;;;;;;;24.92;22.45;;;;;;;;;;5074179;28;20191;-79
2021/12/05 03:54:13;;;;;;;24.17;21.90;;;;;;;;;;5092496;28;20210;-78
2021/12/05 03:56:41;;;;;;;22.90;21.20;;;;;;;;;;5094651;28;20192;-79
2021/12/05 03:59:11;;;;;;;22.83;21.08;;;;;;;;;;5094156;28;20227;-78
2021/12/05 04:01:39;;;;;;;22.75;20.83;;;;;;;;;;5094105;28;20189;-79
2021/12/05 04:04:07;;;;;;;24.92;22.70;;;;;;;;;;5094403;28;20309;-79
2021/12/05 04:06:35;;;;;;;23.88;21.67;;;;;;;;;;5094120;28;20243;-79
2021/12/05 04:09:03;;;;;;;24.20;22.20;;;;;;;;;;5094361;28;20238;-79
2021/12/05 04:11:35;;;;;;;23.75;21.90;;;;;;;;;;5094260;28;20257;-79
2021/12/05 04:14:03;;;;;;;22.98;20.83;;;;;;;;;;5093668;28;20212;-79
2021/12/05 04:16:32;;;;;;;25.15;23.10;;;;;;;;;;5094262;28;20208;-79
2021/12/05 04:18:59;;;;;;;22.88;21.08;;;;;;;;;;5094133;28;20190;-79
2021/12/05 04:21:29;;;;;;;23.50;21.70;;;;;;;;;;5093825;28;20638;-78
2021/12/05 04:23:56;;;;;;;24.77;22.65;;;;;;;;;;5093684;28;20204;-79
2021/12/05 04:26:24;;;;;;;24.80;22.60;;;;;;;;;;5093629;28;20193;-79
2021/12/05 04:28:52;;;;;;;24.60;22.50;;;;;;;;;;5094078;28;20196;-80
2021/12/05 04:31:21;;;;;;;24.33;22.48;;;;;;;;;;5093934;28;20187;-79
2021/12/05 04:33:50;;;;;;;25.60;22.90;;;;;;;;;;5093845;28;20192;-79
2021/12/05 04:36:18;;;;;;;24.63;22.70;;;;;;;;;;5093533;28;20225;-79
2021/12/05 04:38:46;;;;;;;24.98;22.95;;;;;;;;;;5093778;28;20213;-79
2021/12/05 04:41:13;;;;;;;24.27;22.02;;;;;;;;;;5093708;28;20537;-78
2021/12/05 04:43:41;;;;;;;24.52;22.63;;;;;;;;;;5093615;28;20192;-79
2021/12/05 04:46:10;;;;;;;25.25;23.45;;;;;;;;;;5093653;28;20550;-78
2021/12/05 04:48:38;;;;;;;25.02;22.85;;;;;;;;;;5093550;28;20189;-78
2021/12/05 04:51:08;;;;;;;23.42;21.70;;;;;;;;;;5093627;28;20192;-78
2021/12/05 04:53:35;;;;;;;24.10;22.38;;;;;;;;;;5080290;28;20197;-79
2021/12/05 04:56:03;;;;;;;32.88;25.45;;;;;;;;;;5072819;28;20687;-79
2021/12/05 04:58:30;;;;;;;23.33;21.25;;;;;;;;;;5072836;28;20221;-78
2021/12/05 05:00:57;;;;;;;23.90;22.17;;;;;;;;;;5072636;28;20210;-78
2021/12/05 05:03:25;;;;;;;22.98;21.08;;;;;;;;;;5072678;28;20189;-79
2021/12/05 05:05:59;;;;;;;24.48;22.35;;;;;;;;;;5072780;28;20201;-79
2021/12/05 05:08:30;;;;;;;23.00;21.23;;;;;;;;;;5073019;28;20259;-79
2021/12/05 05:10:58;;;;;;;24.95;22.67;;;;;;;;;;5072521;28;20645;-78
2021/12/05 05:13:26;;;;;;;23.08;21.30;;;;;;;;;;5072748;28;20197;-78
2021/12/05 05:15:53;;;;;;;24.90;22.58;;;;;;;;;;5072411;28;20220;-79
2021/12/05 05:18:22;;;;;;;28.85;24.45;;;;;;;;;;5072900;28;20192;-79
2021/12/05 05:20:57;;;;;;;26.90;24.73;;;;;;;;;;5072433;28;20221;-78
2021/12/05 05:23:41;;;;;;;32.10;29.27;;;;;;;;;;5072750;28;20220;-79
2021/12/05 05:26:40;;;;;;;32.20;29.15;;;;;;;;;;5072625;28;20287;-79
2021/12/05 05:40:26;;;;;;;26.73;24.15;;;;;;;;;;5005344;28;20314;-78
2021/12/05 05:46:00;;;;;;;27.60;25.58;;;;;;;;;;5019710;28;20218;-79
2021/12/05 05:51:10;;;;;;;25.40;23.27;;;;;;;;;;5028126;28;20210;-78
2021/12/05 05:53:37;;;;;;;26.27;24.02;;;;;;;;;;5029034;28;20195;-78
2021/12/05 05:56:09;;;;;;;24.92;23.15;;;;;;;;;;5029798;28;20221;-79
2021/12/05 05:58:42;;;;;;;25.65;23.67;;;;;;;;;;5029616;28;20221;-79
2021/12/05 06:01:18;;;;;;;25.98;24.08;;;;;;;;;;5029714;28;20221;-79
2021/12/05 06:03:46;;;;;;;24.83;22.50;;;;;;;;;;5029726;28;20198;-79
2021/12/05 06:06:14;;;;;;;25.52;23.20;;;;;;;;;;5029839;28;20245;-83
2021/12/05 06:08:42;;;;;;;24.70;23.00;;;;;;;;;;5030680;28;20607;-80
2021/12/05 06:11:10;;;;;;;25.20;23.02;;;;;;;;;;5030660;28;20191;-80
2021/12/05 06:13:40;;;;;;;22.77;21.38;;;;;;;;;;5030004;28;20208;-80
2021/12/05 06:16:08;;;;;;;22.83;20.83;;;;;;;;;;5091405;28;20232;-79
2021/12/05 06:18:36;;;;;;;25.15;23.20;;;;;;;;;;5090533;28;20662;-79
2021/12/05 06:21:04;;;;;;;23.17;21.50;;;;;;;;;;5091281;28;20642;-78
2021/12/05 06:23:31;;;;;;;26.77;24.60;;;;;;;;;;5092016;28;20246;-80
2021/12/05 06:25:59;;;;;;;24.85;22.95;;;;;;;;;;5073482;28;20820;-80
2021/12/05 06:28:33;;;;;;;24.20;22.35;;;;;;;;;;5092234;28;20189;-80
2021/12/05 06:31:10;;;;;;;23.77;21.83;;;;;;;;;;5092832;28;20197;-80
2021/12/05 06:42:23;;;;;;;22.42;20.63;;;;;;;;;;5092578;28;20196;-80
2021/12/05 06:47:37;;;;;;;22.42;20.27;;;;;;;;;;5092541;28;20665;-78
2021/12/05 06:50:05;;;;;;;21.67;20.05;;;;;;;;;;5074304;28;20648;-80
2021/12/05 06:52:33;;;;;;;21.58;20.17;;;;;;;;;;5092669;28;20196;-78
2021/12/05 06:55:00;;;;;;;22.40;20.67;;;;;;;;;;5092289;28;20646;-80
2021/12/05 06:57:28;;;;;;;21.85;20.35;;;;;;;;;;5092647;28;20195;-80
2021/12/05 06:59:55;;;;;;;22.55;20.40;;;;;;;;;;5092346;28;20609;-80
2021/12/05 07:02:23;;;;;;;22.40;21.10;;;;;;;;;;5091647;28;20190;-80
2021/12/05 07:07:36;;;;;;;22.42;20.70;;;;;;;;;;5093071;28;20231;-80
2021/12/05 07:10:06;;;;;;;23.92;21.50;;;;;;;;;;5096430;28;20292;-80
2021/12/05 07:15:31;;;;;;;23.67;21.65;;;;;;;;;;5069594;28;20235;-80
2021/12/05 07:20:59;;;;;;;22.48;20.73;;;;;;;;;;5096024;28;20645;-79
2021/12/05 07:23:41;;;;;;;23.83;22.27;;;;;;;;;;5096244;28;20309;-80
2021/12/05 07:26:12;;;;;;;22.73;20.95;;;;;;;;;;5096034;28;20279;-79
2021/12/05 07:42:27;;;;;;;21.48;20.10;;;;;;;;;;5095556;28;20197;-80
2021/12/05 07:44:55;;;;;;;21.23;19.65;;;;;;;;;;5095409;28;20192;-79
2021/12/05 07:47:27;;;;;;;22.40;20.75;;;;;;;;;;5095645;28;20203;-80
2021/12/05 07:49:56;;;;;;;21.58;19.80;;;;;;;;;;5095592;28;20624;-79
2021/12/05 07:52:28;;;;;;;22.25;20.40;;;;;;;;;;5095591;28;20226;-77
2021/12/05 07:55:08;;;;;;;21.85;20.52;;;;;;;;;;5095222;28;20634;-80
2021/12/05 07:57:44;;;;;;;21.85;20.00;;;;;;;;;;5093231;28;20232;-76
2021/12/05 08:00:29;;;;;;;21.13;19.73;;;;;;;;;;5093415;28;20310;-77
2021/12/05 08:16:48;;;;;;;22.85;21.10;;;;;;;;;;5053641;28;20312;-76
2021/12/05 08:19:15;;;;;;;22.75;20.77;;;;;;;;;;5054232;28;20556;-77
2021/12/05 08:21:43;;;;;;;24.05;21.50;;;;;;;;;;5053941;28;20202;-77
2021/12/05 08:24:11;;;;;;;23.30;21.13;;;;;;;;;;5054242;28;20284;-78
2021/12/05 08:26:39;;;;;;;21.98;20.42;;;;;;;;;;5054701;28;20185;-76
2021/12/05 08:29:12;;;;;;;23.80;21.45;;;;;;;;;;5054403;28;20689;-77
2021/12/05 08:31:59;;;;;;;20.83;19.63;;;;;;;;;;5054322;28;20282;-77
2021/12/05 08:37:46;;;;;;;22.60;21.00;;;;;;;;;;5050435;28;20240;-77
2021/12/05 08:43:32;;;;;;;22.58;21.23;;;;;;;;;;5053870;28;20210;-77
2021/12/05 09:08:16;;;;;;;22.80;21.30;;;;;;;;;;5054466;28;20192;-77
2021/12/05 09:28:53;;;;;;;23.02;21.23;;;;;;;;;;4952674;28;20980;-76
2021/12/05 09:38:30;;;;;;;26.47;24.10;;;;;;;;;;4953162;29;20276;-76
2021/12/05 09:40:12;;;;;;;24.35;22.65;;;;;;;;;;4914989;29;20577;-77
2021/12/05 09:51:25;;;;;;;24.55;22.25;;;;;;;;;;5010994;28;20210;-78
2021/12/05 10:02:43;;;;;;;25.13;22.95;;;;;;;;;;5011195;28;20216;-77
2021/12/05 10:08:40;;;;;;;22.35;21.10;;;;;;;;;;5010891;28;20249;-78
2021/12/05 10:11:23;;;;;;;24.85;22.65;;;;;;;;;;5011228;28;20203;-77
2021/12/05 10:14:11;;;;;;;24.58;22.77;;;;;;;;;;5010710;28;20750;-77
2021/12/05 10:16:52;;;;;;;23.65;22.00;;;;;;;;;;5049273;28;20704;-76
2021/12/05 10:19:52;;;;;;;22.17;20.80;;;;;;;;;;5053026;28;20198;-77
2021/12/05 10:36:14;;;;;;;22.23;20.98;;;;;;;;;;5011869;28;20212;-77
2021/12/05 10:38:47;;;;;;;23.30;21.70;;;;;;;;;;5010838;28;20193;-77
2021/12/05 10:41:35;;;;;;;22.45;20.90;;;;;;;;;;5014422;28;20191;-77
2021/12/05 10:44:06;;;;;;;22.80;21.17;;;;;;;;;;5014430;28;20196;-77
2021/12/05 10:46:34;;;;;;;22.17;20.87;;;;;;;;;;5014664;28;20482;-77
2021/12/05 10:49:03;;;;;;;22.23;20.92;;;;;;;;;;5014632;28;20426;-77
2021/12/05 10:51:32;;;;;;;22.40;20.70;;;;;;;;;;5014190;28;20397;-77
2021/12/05 10:54:02;;;;;;;21.53;20.13;;;;;;;;;;5014151;28;20418;-76
2021/12/05 10:56:30;;;;;;;22.00;20.70;;;;;;;;;;5013992;28;20471;-77
2021/12/05 10:58:59;;;;;;;22.95;21.48;;;;;;;;;;5031521;28;20472;-76
2021/12/05 11:01:31;;;;;;;23.50;21.73;;;;;;;;;;5056265;28;20545;-77
2021/12/05 11:04:00;;;;;;;22.27;21.07;;;;;;;;;;5056741;28;20409;-76
2021/12/05 11:06:31;;;;;;;22.10;20.90;;;;;;;;;;5067407;28;20943;-76
2021/12/05 11:08:59;;;;;;;22.03;20.83;;;;;;;;;;5096138;28;20918;-77
2021/12/05 11:11:28;;;;;;;23.43;21.67;;;;;;;;;;5096598;28;20451;-77
2021/12/05 11:13:58;;;;;;;22.50;20.60;;;;;;;;;;5096265;28;20821;-77
2021/12/05 11:16:39;;;;;;;24.25;22.52;;;;;;;;;;5096164;28;20476;-76
2021/12/05 11:19:11;;;;;;;25.03;23.40;;;;;;;;;;5096334;28;20191;-77
2021/12/05 11:21:46;;;;;;;24.60;22.80;;;;;;;;;;5096179;28;20451;-77
2021/12/05 11:24:16;;;;;;;22.03;20.73;;;;;;;;;;5095939;28;20986;-77
2021/12/05 11:26:46;;;;;;;22.25;20.42;;;;;;;;;;5095935;28;20427;-77
2021/12/05 11:29:14;;;;;;;22.47;20.87;;;;;;;;;;5095865;28;20182;-76
2021/12/05 11:31:41;;;;;;;21.93;20.63;;;;;;;;;;5096097;28;20411;-76
2021/12/05 11:34:08;;;;;;;23.43;21.97;;;;;;;;;;5096023;28;20524;-77
2021/12/05 11:36:37;;;;;;;22.97;21.10;;;;;;;;;;5095692;28;20475;-77
2021/12/05 11:39:19;;;;;;;22.53;20.90;;;;;;;;;;5095713;28;20443;-77
2021/12/05 11:41:48;;;;;;;22.13;20.77;;;;;;;;;;5097020;28;20445;-75
2021/12/05 11:44:18;;;;;;;21.50;20.10;;;;;;;;;;5095830;28;20416;-75
2021/12/05 11:46:46;;;;;;;22.57;21.00;;;;;;;;;;5095917;28;20767;-75
2021/12/05 11:49:16;;;;;;;26.80;24.53;;;;;;;;;;5095735;28;20796;-75
2021/12/05 11:51:45;;;;;;;25.77;24.08;;;;;;;;;;5094943;28;20802;-75
2021/12/05 11:54:14;;;;;;;23.77;22.47;;;;;;;;;;5095639;28;20298;-75
2021/12/05 11:56:44;;;;;;;22.77;21.20;;;;;;;;;;5095419;28;20499;-75
2021/12/05 11:59:17;;;;;;;23.30;22.00;;;;;;;;;;5095617;28;20829;-75
2021/12/05 12:01:46;;;;;;;22.40;21.07;;;;;;;;;;5095455;28;20423;-75
2021/12/05 12:04:15;;;;;;;36.47;33.03;;;;;;;;;;5095433;28;20434;-75
2021/12/05 12:06:43;;;;;;;28.70;26.30;;;;;;;;;;5095097;28;20506;-76
2021/12/05 12:09:10;;;;;;;24.93;23.00;;;;;;;;;;5095051;28;20442;-75
2021/12/05 12:11:38;;;;;;;21.90;20.70;;;;;;;;;;5095492;28;20455;-75
2021/12/05 12:14:05;;;;;;;22.25;20.77;;;;;;;;;;5092964;28;20426;-75
2021/12/05 12:16:34;;;;;;;27.27;25.37;;;;;;;;;;5096058;28;20225;-84
2021/12/05 12:19:02;;;;;;;31.02;28.35;;;;;;;;;;5096524;28;21029;-75
2021/12/05 12:21:38;;;;;;;35.67;32.97;;;;;;;;;;5077708;28;20214;-88
2021/12/05 12:24:06;;;;;;;24.90;23.30;;;;;;;;;;5095603;28;20484;-87
2021/12/05 12:26:34;;;;;;;22.57;21.00;;;;;;;;;;5095978;28;20479;-83
2021/12/05 12:29:02;;;;;;;31.10;28.67;;;;;;;;;;5095756;28;20444;-83
2021/12/05 12:31:33;;;;;;;51.37;46.07;;;;;;;;;;5097341;28;20436;-88
2021/12/05 12:34:03;;;;;;;50.87;46.43;;;;;;;;;;5096228;28;20533;-88
2021/12/05 12:36:34;;;;;;;25.90;24.03;;;;;;;;;;5096026;28;20481;-87
2021/12/05 12:39:04;;;;;;;26.67;24.53;;;;;;;;;;5076652;28;20421;-77
2021/12/05 12:41:33;;;;;;;30.23;27.80;;;;;;;;;;5094104;28;20427;-77
2021/12/05 12:44:01;;;;;;;31.47;29.17;;;;;;;;;;5094836;28;20449;-77
2021/12/05 12:46:36;;;;;;;24.77;23.23;;;;;;;;;;5094291;28;20955;-77
2021/12/05 12:49:18;;;;;;;24.77;23.00;;;;;;;;;;5094696;28;20444;-77
2021/12/05 12:51:49;;;;;;;22.53;21.13;;;;;;;;;;5093831;28;20441;-77
2021/12/05 12:54:18;;;;;;;24.47;22.97;;;;;;;;;;5094518;28;20415;-76
2021/12/05 12:57:01;;;;;;;25.00;23.50;;;;;;;;;;5096030;28;20476;-77
2021/12/05 12:59:30;;;;;;;22.53;21.03;;;;;;;;;;5096248;28;20495;-76
2021/12/05 13:02:26;;;;;;;22.70;21.30;;;;;;;;;;5094523;28;20436;-77
2021/12/05 13:10:26;;;;;;;23.67;21.85;;;;;;;;;;5094393;28;20485;-77
2021/12/05 13:12:59;;;;;;;29.13;26.80;;;;;;;;;;5094267;28;20198;-77
2021/12/05 13:15:29;;;;;;;26.03;24.17;;;;;;;;;;5085372;28;20429;-78
2021/12/05 13:17:58;;;;;;;22.63;21.10;;;;;;;;;;5084489;28;20985;-77
2021/12/05 13:20:27;;;;;;;23.63;21.90;;;;;;;;;;5083903;28;20419;-77
2021/12/05 13:23:01;;;;;;;22.20;20.83;;;;;;;;;;5085837;28;20518;-76
2021/12/05 13:25:29;;;;;;;24.07;22.30;;;;;;;;;;5093881;28;20444;-76
2021/12/05 13:27:57;;;;;;;23.20;21.70;;;;;;;;;;5076651;28;20415;-77
2021/12/05 13:30:31;;;;;;;22.87;20.93;;;;;;;;;;5094382;28;20224;-77
2021/12/05 13:33:18;;;;;;;21.87;20.67;;;;;;;;;;5093838;28;20450;-77
2021/12/05 13:35:46;;;;;;;22.23;21.00;;;;;;;;;;5093752;28;20414;-77
2021/12/05 13:38:33;;;;;;;22.40;21.02;;;;;;;;;;5093316;28;20488;-78
2021/12/05 13:41:11;;;;;;;21.73;20.30;;;;;;;;;;5093608;28;20229;-77
2021/12/05 13:43:38;;;;;;;22.97;21.60;;;;;;;;;;5093195;28;20843;-78
2021/12/05 13:46:22;;;;;;;21.73;20.33;;;;;;;;;;5094237;28;20531;-77
2021/12/05 13:48:50;;;;;;;22.20;20.80;;;;;;;;;;5094185;28;20490;-77
2021/12/05 13:51:23;;;;;;;21.52;20.20;;;;;;;;;;5093943;28;20193;-77
2021/12/05 13:53:52;;;;;;;22.17;20.88;;;;;;;;;;5093985;28;20220;-77
2021/12/05 13:56:26;;;;;;;22.37;20.70;;;;;;;;;;5094835;28;20264;-77
2021/12/05 13:58:54;;;;;;;23.00;21.40;;;;;;;;;;5096538;28;20552;-77
2021/12/05 14:01:23;;;;;;;23.53;21.93;;;;;;;;;;5107267;28;20410;-76
2021/12/05 14:03:53;;;;;;;22.70;21.20;;;;;;;;;;5099401;28;20452;-76
2021/12/05 14:06:38;;;;;;;23.90;22.50;;;;;;;;;;5094041;28;20455;-77
2021/12/05 14:09:09;;;;;;;21.77;20.47;;;;;;;;;;5098438;28;20486;-77
2021/12/05 14:11:37;;;;;;;22.50;20.90;;;;;;;;;;5094670;28;20444;-77
2021/12/05 14:14:05;;;;;;;22.63;21.15;;;;;;;;;;5093784;28;20908;-77
2021/12/05 14:16:34;;;;;;;21.80;20.60;;;;;;;;;;5102725;28;20532;-77
2021/12/05 14:19:01;;;;;;;28.02;26.02;;;;;;;;;;5107448;28;20465;-83
2021/12/05 14:21:29;;;;;;;33.63;30.93;;;;;;;;;;5107876;28;20594;-80
2021/12/05 14:23:57;;;;;;;30.90;28.30;;;;;;;;;;5103841;28;20433;-81
2021/12/05 14:26:27;;;;;;;30.73;28.70;;;;;;;;;;5100642;28;20407;-80
2021/12/05 14:28:59;;;;;;;25.15;23.30;;;;;;;;;;5087548;28;20420;-80
2021/12/05 14:31:27;;;;;;;22.83;21.47;;;;;;;;;;5079538;28;20184;-80
2021/12/05 14:33:56;;;;;;;22.37;21.03;;;;;;;;;;5083792;28;20831;-80
2021/12/05 14:36:24;;;;;;;21.83;20.53;;;;;;;;;;5083946;28;20418;-80
2021/12/05 14:39:06;;;;;;;23.40;21.75;;;;;;;;;;5083127;28;20458;-81
2021/12/05 14:41:35;;;;;;;23.50;21.83;;;;;;;;;;5083240;28;20191;-80
2021/12/05 14:44:05;;;;;;;22.33;20.80;;;;;;;;;;5085494;28;20409;-80
2021/12/05 14:46:33;;;;;;;22.10;20.90;;;;;;;;;;5083650;28;20448;-80
2021/12/05 14:49:03;;;;;;;21.80;20.70;;;;;;;;;;5078417;28;20431;-81
2021/12/05 14:51:34;;;;;;;21.37;20.17;;;;;;;;;;5083653;28;20490;-81
2021/12/05 14:54:02;;;;;;;23.40;22.03;;;;;;;;;;5083942;28;20437;-81
2021/12/05 14:56:29;;;;;;;23.88;22.48;;;;;;;;;;5079494;28;20449;-80
2021/12/05 14:59:06;;;;;;;22.67;21.37;;;;;;;;;;5073087;28;20232;-81
2021/12/05 15:01:33;;;;;;;22.23;20.80;;;;;;;;;;5073245;28;20454;-80
2021/12/05 15:04:02;;;;;;;26.90;25.03;;;;;;;;;;5073300;28;20433;-81
2021/12/05 15:06:35;;;;;;;25.73;23.73;;;;;;;;;;5073745;28;20564;-93
2021/12/05 15:09:04;;;;;;;23.20;21.60;;;;;;;;;;5095644;28;20431;-90
2021/12/05 15:11:31;;;;;;;24.42;22.90;;;;;;;;;;5095842;28;20905;-91
2021/12/05 15:14:07;;;;;;;24.80;22.77;;;;;;;;;;5093910;28;20258;-80
2021/12/05 15:16:35;;;;;;;25.70;23.70;;;;;;;;;;5093764;28;20557;-81
2021/12/05 15:19:02;;;;;;;23.20;21.80;;;;;;;;;;5093677;28;20466;-78
2021/12/05 15:21:42;;;;;;;23.43;22.00;;;;;;;;;;5092970;28;20893;-81
2021/12/05 15:24:13;;;;;;;22.95;21.45;;;;;;;;;;5092605;28;20422;-80
2021/12/05 15:26:41;;;;;;;24.37;22.83;;;;;;;;;;5093350;28;20624;-79
2021/12/05 15:29:10;;;;;;;25.17;23.57;;;;;;;;;;5096247;28;20422;-79
2021/12/05 15:31:38;;;;;;;25.17;23.43;;;;;;;;;;5099658;28;20509;-81
2021/12/05 15:34:18;;;;;;;27.30;25.17;;;;;;;;;;5096603;28;20444;-80
2021/12/05 15:36:46;;;;;;;23.23;21.70;;;;;;;;;;5096238;28;20433;-80
2021/12/05 15:39:19;;;;;;;23.02;21.27;;;;;;;;;;5096461;28;20748;-80
2021/12/05 15:41:46;;;;;;;23.10;21.55;;;;;;;;;;5097442;28;20591;-80
2021/12/05 15:44:25;;;;;;;24.55;22.85;;;;;;;;;;5095393;28;20194;-80
2021/12/05 15:47:00;;;;;;;24.40;22.90;;;;;;;;;;5097152;28;20291;-81
2021/12/05 15:49:28;;;;;;;23.87;22.20;;;;;;;;;;5096608;28;20231;-81
2021/12/05 15:52:00;;;;;;;25.08;23.35;;;;;;;;;;5096681;28;20440;-81
2021/12/05 15:54:28;;;;;;;25.30;23.45;;;;;;;;;;5097720;28;20234;-80
2021/12/05 15:57:08;;;;;;;23.85;22.35;;;;;;;;;;5096164;28;20220;-81
2021/12/05 15:59:39;;;;;;;25.30;23.65;;;;;;;;;;5097941;28;20204;-94
2021/12/05 16:02:10;;;;;;;27.33;25.43;;;;;;;;;;5099142;28;20186;-89
2021/12/05 16:04:38;;;;;;;27.70;25.80;;;;;;;;;;5096147;28;20463;-95
2021/12/05 16:07:17;;;;;;;25.60;23.70;;;;;;;;;;5071181;28;20481;-94
2021/12/05 16:09:45;;;;;;;25.17;23.47;;;;;;;;;;5057252;28;20221;-90
2021/12/05 16:12:14;;;;;;;25.38;23.48;;;;;;;;;;5084772;28;21270;-93
2021/12/05 16:14:44;;;;;;;25.00;23.23;;;;;;;;;;5096092;28;20201;-91
2021/12/05 16:17:16;;;;;;;25.73;24.13;;;;;;;;;;5096049;28;20251;-91
2021/12/05 16:19:58;;;;;;;27.70;25.25;;;;;;;;;;5094691;28;20213;-92
2021/12/05 16:22:27;;;;;;;28.00;25.70;;;;;;;;;;5096249;28;20210;-91
2021/12/05 16:24:54;;;;;;;25.90;24.25;;;;;;;;;;5096776;28;20702;-92
2021/12/05 16:27:22;;;;;;;26.23;24.63;;;;;;;;;;5096027;28;20245;-94
2021/12/05 16:29:50;;;;;;;26.00;24.20;;;;;;;;;;5096490;28;20267;-93
2021/12/05 16:32:18;;;;;;;26.85;25.05;;;;;;;;;;5097472;28;20205;-91
2021/12/05 16:34:49;;;;;;;26.65;24.88;;;;;;;;;;5097531;28;20197;-92
2021/12/05 16:37:16;;;;;;;26.73;25.02;;;;;;;;;;5096487;28;20212;-90
2021/12/05 16:39:44;;;;;;;26.08;24.33;;;;;;;;;;5097254;28;20218;-93
2021/12/05 16:42:13;;;;;;;26.27;24.73;;;;;;;;;;5096738;28;20205;-92
2021/12/05 16:44:41;;;;;;;25.63;23.95;;;;;;;;;;5099020;28;20205;-92
2021/12/05 16:47:12;;;;;;;26.40;24.50;;;;;;;;;;5097711;28;20209;-92
2021/12/05 16:49:41;;;;;;;27.25;25.38;;;;;;;;;;5097510;28;20646;-89
2021/12/05 16:52:10;;;;;;;28.05;26.02;;;;;;;;;;5098914;28;20212;-90
2021/12/05 16:54:43;;;;;;;28.08;25.90;;;;;;;;;;5098801;28;20201;-92
2021/12/05 16:57:12;;;;;;;27.35;25.55;;;;;;;;;;5098049;28;20261;-89
2021/12/05 16:59:41;;;;;;;28.50;25.88;;;;;;;;;;5096209;28;20339;-80
2021/12/05 17:02:15;;;;;;;28.20;26.03;;;;;;;;;;5094318;28;20193;-81
2021/12/05 17:04:48;;;;;;;27.00;25.23;;;;;;;;;;5094601;28;20459;-80
2021/12/05 17:07:18;;;;;;;27.48;25.67;;;;;;;;;;5107186;28;20227;-85
2021/12/05 17:09:49;;;;;;;29.58;27.35;;;;;;;;;;5110215;28;20208;-79
2021/12/05 17:12:29;;;;;;;28.95;26.85;;;;;;;;;;5082945;28;20193;-79
2021/12/05 17:15:11;;;;;;;30.27;28.05;;;;;;;;;;5081932;28;20187;-80
2021/12/05 17:17:41;;;;;;;29.70;27.73;;;;;;;;;;5091333;28;20231;-81
2021/12/05 17:20:24;;;;;;;29.97;27.57;;;;;;;;;;5095222;28;20286;-81
2021/12/05 17:22:53;;;;;;;31.70;29.20;;;;;;;;;;5093838;28;20429;-81
2021/12/05 17:25:28;;;;;;;31.15;28.55;;;;;;;;;;5095560;28;20688;-81
2021/12/05 17:27:56;;;;;;;31.85;29.40;;;;;;;;;;5096571;28;20188;-80
2021/12/05 17:30:25;;;;;;;29.80;27.50;;;;;;;;;;5098298;28;20247;-80
2021/12/05 17:33:01;;;;;;;28.70;26.60;;;;;;;;;;5095947;28;20192;-81
2021/12/05 17:35:30;;;;;;;28.15;26.15;;;;;;;;;;5093920;28;20630;-79
2021/12/05 17:37:58;;;;;;;25.42;23.77;;;;;;;;;;5081057;28;20552;-81
2021/12/05 17:40:26;;;;;;;26.17;24.50;;;;;;;;;;5073469;28;20197;-82
2021/12/05 17:42:53;;;;;;;24.60;22.85;;;;;;;;;;5072915;28;20205;-82
2021/12/05 17:45:21;;;;;;;25.23;23.52;;;;;;;;;;5073250;28;20255;-81
2021/12/05 17:47:48;;;;;;;26.10;24.27;;;;;;;;;;5079564;28;20214;-93
2021/12/05 17:50:20;;;;;;;24.02;22.73;;;;;;;;;;5089734;28;20208;-93
2021/12/05 17:52:49;;;;;;;24.45;22.90;;;;;;;;;;5090039;28;20246;-93
2021/12/05 17:55:21;;;;;;;25.60;23.55;;;;;;;;;;5094129;28;20229;-94
2021/12/05 17:57:55;;;;;;;24.15;22.42;;;;;;;;;;5087125;28;20209;-92
2021/12/05 18:00:35;;;;;;;23.38;21.98;;;;;;;;;;5093400;28;20209;-92
2021/12/05 18:03:03;;;;;;;24.45;22.95;;;;;;;;;;5090398;28;20215;-94
2021/12/05 18:05:33;;;;;;;26.63;24.55;;;;;;;;;;5072037;28;20239;-94
2021/12/05 18:08:04;;;;;;;25.38;23.80;;;;;;;;;;5092165;28;20234;-92
2021/12/05 18:10:35;;;;;;;25.90;23.98;;;;;;;;;;5093298;28;20204;-92
2021/12/05 18:13:04;;;;;;;25.33;23.60;;;;;;;;;;5096337;28;20197;-92
2021/12/05 18:15:35;;;;;;;25.37;23.30;;;;;;;;;;5094196;28;20204;-92
2021/12/05 18:18:02;;;;;;;24.55;22.92;;;;;;;;;;5071928;28;20455;-93
2021/12/05 18:20:31;;;;;;;25.30;23.50;;;;;;;;;;5096307;28;20644;-94
2021/12/05 18:23:02;;;;;;;25.33;23.52;;;;;;;;;;5094618;28;20212;-91
2021/12/05 18:25:30;;;;;;;25.48;23.75;;;;;;;;;;5089943;28;20205;-81
2021/12/05 18:27:58;;;;;;;32.88;30.17;;;;;;;;;;5093521;28;20216;-93
2021/12/05 18:35:37;;;;;;;29.70;27.70;;;;;;;;;;5040795;28;20245;-96
2021/12/05 18:38:11;;;;;;;30.45;28.35;;;;;;;;;;5018833;28;20210;-84
2021/12/05 18:40:39;;;;;;;28.63;26.58;;;;;;;;;;5011406;28;20800;-86
2021/12/05 18:43:07;;;;;;;29.30;27.30;;;;;;;;;;5034838;28;20192;-88
2021/12/05 18:45:39;;;;;;;30.15;28.10;;;;;;;;;;5035209;28;20219;-87
2021/12/05 18:48:09;;;;;;;30.52;28.33;;;;;;;;;;5038003;28;20214;-88
2021/12/05 18:50:36;;;;;;;30.85;28.42;;;;;;;;;;5037394;28;20204;-89
2021/12/05 18:53:04;;;;;;;31.88;29.40;;;;;;;;;;5043410;28;20214;-93
2021/12/05 18:55:36;;;;;;;51.17;45.20;;;;;;;;;;5040416;28;20269;-90
2021/12/05 18:58:09;;;;;;;53.40;47.70;;;;;;;;;;5046577;28;20207;-85
2021/12/05 19:04:19;;;;;;;41.97;37.72;;;;;;;;;;5036484;28;20434;-86